Latest Weather Observations for Alice Springs Airport

IDD60801

Issued at 9:35 pm CST Thursday 21 August 2014 (issued every 30 minutes, with the page automatically refreshed every 10 minutes)

About weather observations | Map of weather stations | Latest weather observations for NT | Other Formats
Station Details ID: 015590 Name: ALICE SPRINGS AIRPORT Lat: -23.80 Lon: 133.89 Height: 546.0 m
Data from the previous 72 hours. | See also: Recent months at Alice Springs Airport
Date/Time
CST
Temp
°C
App
Temp
°C
Dew
Point
Rel
Hum
%
Delta-T
°C
Wind Press
QNH
hPa
Press
MSL
hPa
Rain
since 9 am
mm
Dir
 
Spd
km/h
Gust
km/h
Spd
kts
Gust
kts
21/09:30pm 11.4 7.5 -4.4 33 6.0 ENE 7 9 4 5 1023.0 1022.2 0.0
21/09:00pm 11.2 6.8 -2.1 39 5.3 SE 11 11 6 6 1022.7 1021.9 0.0
21/08:30pm 12.1 7.4 -5.2 29 6.5 ESE 11 11 6 6 1022.4 1021.6 0.0
21/08:00pm 13.8 9.1 -4.8 27 7.2 ESE 11 11 6 6 1022.0 - 0.0
21/07:30pm 13.8 9.1 -4.8 27 7.2 ESE 11 13 6 7 1021.5 1020.7 0.0
21/07:00pm 14.6 9.5 -4.9 25 7.6 SE 13 15 7 8 1021.0 - 0.0
21/06:30pm 16.9 11.8 -5.4 21 8.8 SE 13 19 7 10 1020.5 1019.7 0.0
21/06:00pm 19.0 13.0 -6.2 17 10.0 SE 17 24 9 13 1020.1 1019.2 0.0
21/05:30pm 19.9 13.9 -6.4 16 10.5 SE 17 26 9 14 1019.7 1018.9 0.0
21/05:00pm 20.7 14.6 -7.5 14 11.1 S 17 26 9 14 1019.5 - 0.0
21/04:30pm 21.2 14.6 -7.2 14 11.3 ESE 20 26 11 14 1019.2 1018.4 0.0
21/04:00pm 21.3 15.7 -6.9 14 11.3 SE 15 22 8 12 1019.2 - 0.0
21/03:30pm 21.3 14.7 -7.4 14 11.4 S 20 24 11 13 1019.1 1018.3 0.0
21/03:00pm 20.6 13.3 -6.1 16 10.8 SSE 24 30 13 16 1019.4 1018.6 0.0
21/02:30pm 19.9 14.5 -4.9 18 10.2 SSE 15 30 8 16 1019.9 1019.0 0.0
21/02:00pm 19.8 14.0 -4.2 19 10.0 ESE 17 30 9 16 1020.2 - 0.0
21/01:30pm 19.9 14.7 -5.9 17 10.4 SE 13 30 7 16 1020.4 1019.6 0.0
21/01:00pm 18.5 13.9 -4.5 20 9.4 ESE 11 20 6 11 1021.0 - 0.0
21/12:30pm 18.5 13.0 -5.0 20 9.5 SE 15 24 8 13 1021.4 1020.6 0.0
21/12:00pm 18.0 13.4 -4.3 21 9.1 SE 11 22 6 12 1021.9 1021.1 0.0
21/11:30am 17.5 12.9 -4.0 23 8.8 ESE 11 17 6 9 1022.2 1021.4 0.0
21/11:00am 16.7 12.1 -4.5 23 8.5 E 11 17 6 9 1022.5 - 0.0
21/10:30am 15.8 10.9 -3.8 26 7.9 E 13 19 7 10 1022.9 1022.1 0.0
21/10:00am 15.2 9.6 -3.3 28 7.5 ENE 17 20 9 11 1023.1 - 0.0
21/09:30am 13.4 8.4 -3.9 30 6.8 ENE 13 22 7 12 1023.4 1022.7 0.0
21/09:00am 11.9 9.1 -3.5 34 6.0 ENE 2 7 1 4 1023.3 1022.5 0.0
21/08:30am 8.9 6.4 -4.4 39 4.9 CALM 0 4 0 2 1023.1 1022.3 0.0
21/08:00am 6.0 2.2 -5.2 44 3.9 WNW 6 7 3 4 1022.8 - 0.0
21/07:30am 3.0 -1.0 -5.8 52 2.9 WNW 7 7 4 4 1022.4 1021.6 0.0
21/07:00am 1.6 -2.4 -6.0 57 2.6 WNW 7 9 4 5 1022.1 - 0.0
21/06:30am 1.6 -2.4 -6.0 57 2.6 WNW 7 9 4 5 1021.9 1021.1 0.0
21/05:30am 1.8 - - - - WNW 7 9 4 5 1021.5 1020.7 0.0
21/05:00am 2.0 - - - - W 7 9 4 5 1021.3 - 0.0
21/04:30am 1.5 - - - - NW 4 7 2 4 1021.1 1020.3 0.0
21/04:00am 2.1 - - - - CALM 0 0 0 0 1021.1 - 0.0
21/03:30am 2.5 -1.1 -3.5 64 2.1 NW 6 7 3 4 1021.3 1020.5 0.0
21/03:00am 4.7 0.3 -6.0 46 3.6 N 9 11 5 6 1021.5 1020.7 0.0
21/02:30am 4.1 0.1 -5.3 50 3.2 WNW 7 7 4 4 1022.0 1021.2 0.0
21/02:00am 4.4 0.4 -5.7 48 3.4 WNW 7 9 4 5 1022.2 - 0.0
21/01:30am 4.7 2.0 -6.0 46 3.6 CALM 0 0 0 0 1022.4 1021.6 0.0
21/01:00am 5.1 2.4 -5.8 45 3.7 CALM 0 0 0 0 1022.5 - 0.0
21/12:30am 5.3 2.6 -5.9 44 3.8 CALM 0 0 0 0 1022.5 1021.7 0.0
21/12:00am 5.6 3.1 -3.9 50 3.4 SW 0 0 0 0 1022.6 1021.8 0.0
 
Date/Time
CST
Temp
°C
App
Temp
°C
Dew
Point
Rel
Hum
%
Delta-T
°C
Wind Press
QNH
hPa
Press
MSL
hPa
Rain
since 9 am
mm
Dir
 
Spd
km/h
Gust
km/h
Spd
kts
Gust
kts
20/11:30pm 7.1 4.4 -5.8 39 4.5 CALM 0 4 0 2 1022.5 1021.7 0.0
20/11:00pm 8.5 4.4 -3.1 44 4.4 SE 9 9 5 5 1022.6 - 0.0
20/10:30pm 8.6 4.9 -4.9 38 4.9 NE 6 7 3 4 1022.7 1021.9 0.0
20/10:00pm 9.2 4.8 -5.5 35 5.3 ENE 9 9 5 5 1022.6 - 0.0
20/09:30pm 10.1 6.4 -4.7 35 5.5 SE 6 9 3 5 1022.4 1021.6 0.0
20/09:00pm 10.2 6.0 -3.7 37 5.3 ESE 9 11 5 6 1022.1 1021.3 0.0
20/08:30pm 10.9 6.3 -4.1 34 5.7 ESE 11 11 6 6 1021.9 1021.1 0.0
20/08:00pm 11.1 6.4 -5.4 31 6.1 SE 11 13 6 7 1021.3 - 0.0
20/07:30pm 12.1 7.3 -5.6 28 6.6 SE 11 13 6 7 1020.8 1020.0 0.0
20/07:00pm 12.9 8.1 -5.8 26 7.0 SSE 11 13 6 7 1020.3 - 0.0
20/06:30pm 14.9 9.7 -6.1 23 8.0 SSE 13 17 7 9 1020.0 1019.1 0.0
20/06:00pm 17.6 11.9 -7.7 17 9.6 SSE 15 22 8 12 1019.7 1018.9 0.0
20/05:30pm 18.7 12.6 -8.1 15 10.2 S 17 24 9 13 1019.5 1018.7 0.0
20/05:00pm 19.1 13.3 -8.1 15 10.4 S 15 26 8 14 1019.3 - 0.0
20/04:30pm 19.5 13.8 -7.5 15 10.5 S 15 24 8 13 1019.1 1018.3 0.0
20/04:00pm 19.7 14.4 -7.5 15 10.6 S 13 19 7 10 1019.0 - 0.0
20/03:30pm 20.1 13.3 -8.7 13 11.0 SSW 20 30 11 16 1018.9 1018.1 0.0
20/03:00pm 19.4 14.6 -6.1 17 10.2 SW 11 22 6 12 1019.1 1018.3 0.0
20/02:30pm 19.2 13.2 -6.2 17 10.1 SW 17 30 9 16 1019.5 1018.7 0.0
20/02:00pm 18.6 12.7 -5.7 18 9.7 SSW 17 22 9 12 1020.0 - 0.0
20/01:30pm 18.4 13.4 -4.7 20 9.4 SSW 13 19 7 10 1020.6 1019.8 0.0
20/01:00pm 17.8 12.8 -4.7 21 9.1 S 13 20 7 11 1021.1 - 0.0
20/12:30pm 17.7 13.4 -4.5 21 9.0 SE 9 17 5 9 1021.6 1020.8 0.0
20/12:00pm 16.6 12.4 -3.8 24 8.3 S 9 15 5 8 1022.2 1021.4 0.0
20/11:30am 16.8 12.3 -3.6 24 8.3 ESE 11 19 6 10 1022.5 1021.7 0.0
20/11:00am 15.7 11.6 -3.1 27 7.7 E 9 17 5 9 1022.8 - 0.0
20/10:30am 15.2 10.1 -2.1 30 7.2 E 15 19 8 10 1023.2 1022.4 0.0
20/10:00am 14.1 9.0 -2.2 32 6.7 ENE 15 19 8 10 1023.4 - 0.0
20/09:30am 13.3 8.6 -1.8 35 6.2 ENE 13 19 7 10 1023.5 1022.8 0.0
20/09:00am 11.8 9.6 -1.4 40 5.4 CALM 0 0 0 0 1023.6 1022.9 0.0
20/08:30am 8.6 5.4 -3.3 43 4.5 W 4 7 2 4 1023.5 1022.8 0.0
20/08:00am 5.1 1.3 -3.9 52 3.2 WNW 7 11 4 6 1023.2 - 0.0
20/07:30am 2.1 -2.2 -4.4 62 2.3 WNW 9 9 5 5 1022.9 1022.1 0.0
20/07:00am 1.1 -3.2 -4.7 65 2.0 NW 9 9 5 5 1022.8 - 0.0
20/06:30am 1.0 -3.3 -4.4 67 1.9 WNW 9 9 5 5 1022.5 1021.7 0.0
20/06:00am 1.4 -2.9 -5.0 62 2.2 WNW 9 9 5 5 1022.3 1021.5 0.0
20/05:30am 1.7 - - - - WNW 9 9 5 5 1022.0 1021.2 0.0
20/05:00am 1.9 - - - - WNW 9 11 5 6 1021.8 - 0.0
20/04:30am 2.0 - - - - WNW 9 9 5 5 1021.4 1020.6 0.0
20/04:00am 1.8 - - - - W 7 7 4 4 1021.4 - 0.0
20/03:30am 1.8 - - - - W 9 11 5 6 1021.6 1020.8 0.0
20/03:00am 3.5 -0.7 -4.0 58 2.6 WNW 9 9 5 5 1021.6 1020.8 0.0
20/02:30am 3.5 -0.7 -4.3 56 2.7 WNW 9 9 5 5 1021.6 1020.8 0.0
20/02:00am 3.7 -0.6 -5.1 52 3.0 W 9 9 5 5 1021.9 - 0.0
20/01:30am 3.4 -0.9 -4.5 56 2.7 W 9 9 5 5 1022.2 1021.4 0.0
20/01:00am 5.1 1.2 -4.6 49 3.4 WNW 7 7 4 4 1022.3 - 0.0
20/12:30am 5.1 1.3 -3.9 52 3.2 WNW 7 9 4 5 1022.2 1021.4 0.0
20/12:00am 4.8 1.1 -4.3 52 3.2 W 6 7 3 4 1022.4 1021.6 0.0
 
Date/Time
CST
Temp
°C
App
Temp
°C
Dew
Point
Rel
Hum
%
Delta-T
°C
Wind Press
QNH
hPa
Press
MSL
hPa
Rain
since 9 am
mm
Dir
 
Spd
km/h
Gust
km/h
Spd
kts
Gust
kts
19/11:30pm 5.6 3.0 -4.6 48 3.6 CALM 0 0 0 0 1022.4 1021.6 0.0
19/11:00pm 5.5 3.0 -3.7 51 3.3 CALM 0 0 0 0 1022.5 - 0.0
19/10:30pm 6.7 4.1 -4.5 44 4.0 CALM 0 0 0 0 1022.4 1021.6 0.0
19/10:00pm 7.3 4.5 -3.5 46 4.0 ESE 2 6 1 3 1022.4 - 0.0
19/09:30pm 8.6 4.5 -3.3 43 4.5 S 9 9 5 5 1022.3 1021.5 0.0
19/09:00pm 10.8 6.3 -3.5 36 5.5 E 11 11 6 6 1022.0 1021.2 0.0
19/08:30pm 11.4 6.6 -2.8 37 5.6 ESE 13 15 7 8 1021.9 1021.1 0.0
19/08:00pm 12.3 7.8 -3.5 33 6.2 ESE 11 11 6 6 1021.5 - 0.0
19/07:30pm 12.0 7.4 -3.7 33 6.1 ESE 11 13 6 7 1021.1 1020.3 0.0
19/07:00pm 13.1 8.1 -4.1 30 6.7 SE 13 15 7 8 1020.8 - 0.0
19/06:30pm 14.0 9.4 -4.4 27 7.2 SE 11 15 6 8 1020.6 1019.8 0.0
19/06:00pm 17.2 12.0 -6.1 20 9.1 S 13 17 7 9 1020.2 1019.3 0.0
19/05:30pm 18.0 13.6 -6.2 18 9.5 S 9 15 5 8 1020.2 1019.3 0.0
19/05:00pm 18.2 13.4 -6.2 18 9.6 SSE 11 20 6 11 1020.1 - 0.0
19/04:30pm 18.6 14.8 -5.7 18 9.7 E 6 13 3 7 1020.0 1019.1 0.0
19/04:00pm 19.3 14.0 -7.0 16 10.3 S 13 26 7 14 1019.9 - 0.0
19/03:30pm 19.2 14.4 -5.7 18 10.0 SSW 11 17 6 9 1020.2 1019.3 0.0
19/03:00pm 19.0 13.4 -6.2 17 10.0 S 15 19 8 10 1020.4 1019.6 0.0
19/02:30pm 17.8 12.0 -4.2 22 9.0 E 17 30 9 16 1020.7 1019.9 0.0
19/02:00pm 17.7 12.6 -4.9 21 9.1 S 13 22 7 12 1021.0 - 0.0
19/01:30pm 17.5 12.9 -4.0 23 8.8 WNW 11 19 6 10 1021.6 1020.8 0.0
19/01:00pm 16.9 12.3 -4.0 23 8.5 SSW 11 19 6 10 1022.3 - 0.0
19/12:30pm 16.8 11.9 -3.4 25 8.3 S 13 22 7 12 1022.8 1022.0 0.0
19/12:00pm 16.1 11.6 -3.2 26 7.9 SSE 11 17 6 9 1023.5 1022.8 0.0
19/11:30am 15.8 10.9 -3.8 26 7.9 S 13 15 7 8 1024.2 1023.4 0.0
19/11:00am 15.3 10.0 -3.6 27 7.6 E 15 28 8 15 1024.7 - 0.0
19/10:30am 14.7 9.1 -3.1 29 7.2 E 17 28 9 15 1025.0 1024.3 0.0
19/10:00am 14.3 8.7 -3.1 30 7.0 E 17 26 9 14 1025.2 - 0.0
19/09:30am 13.7 8.6 -1.9 34 6.4 E 15 22 8 12 1025.3 1024.6 0.0
19/09:00am 12.0 10.0 -0.1 43 5.1 CALM 0 6 0 3 1025.3 1024.6 0.0
19/08:30am 7.6 5.0 -2.0 50 3.7 W 2 7 1 4 1025.1 1024.4 0.0
19/08:00am 5.2 1.5 -2.7 56 2.9 W 7 7 4 4 1024.6 - 0.0
19/07:30am 2.0 -2.1 -3.4 67 1.9 WNW 9 9 5 5 1024.2 1023.4 0.0
19/07:00am 0.7 -3.4 -3.0 76 1.3 NW 9 9 5 5 1023.9 - 0.0
19/06:30am 1.5 -2.6 -2.8 73 1.6 NW 9 9 5 5 1023.6 1022.9 0.0
19/06:00am 2.2 -1.9 -3.2 67 1.9 NW 9 11 5 6 1023.2 1022.4 0.0
19/05:30am 2.1 - - - - WNW 9 9 5 5 1023.0 1022.2 0.0
19/05:00am 1.7 - - - - WNW 9 11 5 6 1022.9 - 0.0
19/04:30am 1.2 - - - - NW 7 9 4 5 1022.9 1022.1 0.0
19/04:00am 1.9 - - - - WNW 6 7 3 4 1022.7 - 0.0
19/03:30am 4.1 0.0 -3.1 59 2.6 NW 9 9 5 5 1022.8 1022.0 0.0
19/03:00am 4.1 -0.4 -3.5 57 2.7 NW 11 13 6 7 1022.8 1022.0 0.0
19/02:30am 3.9 0.4 -2.7 62 2.4 NW 6 7 3 4 1023.0 1022.2 0.0
19/02:00am 3.4 -0.8 -3.7 60 2.5 WNW 9 9 5 5 1023.2 - 0.0
19/01:30am 3.6 -0.6 -3.8 58 2.6 W 9 9 5 5 1023.3 1022.5 0.0
19/01:00am 3.7 1.3 -3.0 61 2.4 CALM 0 0 0 0 1023.3 - 0.0
19/12:30am 4.8 2.4 -3.2 56 2.9 CALM 0 0 0 0 1023.4 1022.7 0.0
19/12:00am 5.1 2.7 -2.8 56 2.9 CALM 0 0 0 0 1023.4 1022.7 0.0
 
Date/Time
CST
Temp
°C
App
Temp
°C
Dew
Point
Rel
Hum
%
Delta-T
°C
Wind Press
QNH
hPa
Press
MSL
hPa
Rain
since 9 am
mm
Dir
 
Spd
km/h
Gust
km/h
Spd
kts
Gust
kts
18/11:30pm 5.8 3.5 -2.5 55 3.1 CALM 0 0 0 0 1023.6 1022.9 0.0
18/11:00pm 6.4 4.1 -2.7 52 3.4 CALM 0 0 0 0 1023.8 - 0.0
18/10:30pm 6.9 4.6 -2.0 53 3.4 CALM 0 0 0 0 1023.9 1023.1 0.0
18/10:00pm 7.1 3.6 -1.7 53 3.4 NNE 7 11 4 6 1023.9 - 0.0

Other Formats:

Comma delimited format used in spreadsheet applications
http://www.bom.gov.au/fwo/IDD60801/IDD60801.94326.axf

JavaScript Object Notation format (JSON) in row-major order
http://www.bom.gov.au/fwo/IDD60801/IDD60801.94326.json